sensor_id;sensor_type;location;lat;lon;timestamp;P1;durP1;ratioP1;P2;durP2;ratioP2
62990;SDS011;49084;48.204;16.202;2024-03-25T00:01:18;1.55;;;0.38;;
62990;SDS011;49084;48.204;16.202;2024-03-25T00:03:44;1.75;;;0.20;;
62990;SDS011;49084;48.204;16.202;2024-03-25T00:06:10;1.08;;;0.40;;
62990;SDS011;49084;48.204;16.202;2024-03-25T00:08:35;0.60;;;0.30;;
62990;SDS011;49084;48.204;16.202;2024-03-25T00:11:01;0.65;;;0.40;;
62990;SDS011;49084;48.204;16.202;2024-03-25T00:13:27;0.75;;;0.30;;
62990;SDS011;49084;48.204;16.202;2024-03-25T00:15:53;0.75;;;0.20;;
62990;SDS011;49084;48.204;16.202;2024-03-25T00:18:18;0.63;;;0.20;;
62990;SDS011;49084;48.204;16.202;2024-03-25T00:20:44;0.40;;;0.40;;
62990;SDS011;49084;48.204;16.202;2024-03-25T00:23:09;1.02;;;0.20;;
62990;SDS011;49084;48.204;16.202;2024-03-25T00:25:36;0.47;;;0.30;;
62990;SDS011;49084;48.204;16.202;2024-03-25T00:28:02;1.27;;;0.32;;
62990;SDS011;49084;48.204;16.202;2024-03-25T00:30:29;0.55;;;0.50;;
62990;SDS011;49084;48.204;16.202;2024-03-25T00:32:55;1.30;;;0.63;;
62990;SDS011;49084;48.204;16.202;2024-03-25T00:35:20;0.65;;;0.38;;
62990;SDS011;49084;48.204;16.202;2024-03-25T00:37:46;1.42;;;0.52;;
62990;SDS011;49084;48.204;16.202;2024-03-25T00:40:12;0.90;;;0.32;;
62990;SDS011;49084;48.204;16.202;2024-03-25T00:42:37;0.63;;;0.40;;
62990;SDS011;49084;48.204;16.202;2024-03-25T00:45:04;0.77;;;0.43;;
62990;SDS011;49084;48.204;16.202;2024-03-25T00:47:32;1.13;;;0.70;;
62990;SDS011;49084;48.204;16.202;2024-03-25T00:49:58;1.13;;;0.60;;
62990;SDS011;49084;48.204;16.202;2024-03-25T00:52:24;1.05;;;0.60;;
62990;SDS011;49084;48.204;16.202;2024-03-25T00:54:49;0.82;;;0.50;;
62990;SDS011;49084;48.204;16.202;2024-03-25T00:57:15;1.95;;;0.40;;
62990;SDS011;49084;48.204;16.202;2024-03-25T00:59:40;0.60;;;0.50;;
62990;SDS011;49084;48.204;16.202;2024-03-25T01:02:06;0.22;;;0.22;;
62990;SDS011;49084;48.204;16.202;2024-03-25T01:04:33;1.80;;;0.65;;
62990;SDS011;49084;48.204;16.202;2024-03-25T01:06:59;1.48;;;0.73;;
62990;SDS011;49084;48.204;16.202;2024-03-25T01:09:24;0.80;;;0.70;;
62990;SDS011;49084;48.204;16.202;2024-03-25T01:11:50;0.93;;;0.77;;
62990;SDS011;49084;48.204;16.202;2024-03-25T01:14:16;1.83;;;0.65;;
62990;SDS011;49084;48.204;16.202;2024-03-25T01:16:42;1.05;;;0.68;;
62990;SDS011;49084;48.204;16.202;2024-03-25T01:19:08;1.27;;;0.90;;
62990;SDS011;49084;48.204;16.202;2024-03-25T01:21:33;0.98;;;0.82;;
62990;SDS011;49084;48.204;16.202;2024-03-25T01:23:59;1.95;;;0.80;;
62990;SDS011;49084;48.204;16.202;2024-03-25T01:26:26;3.97;;;1.05;;
62990;SDS011;49084;48.204;16.202;2024-03-25T01:28:52;0.70;;;0.70;;
62990;SDS011;49084;48.204;16.202;2024-03-25T01:31:18;2.03;;;0.95;;
62990;SDS011;49084;48.204;16.202;2024-03-25T01:33:44;0.73;;;0.68;;
62990;SDS011;49084;48.204;16.202;2024-03-25T01:36:10;4.28;;;1.00;;
62990;SDS011;49084;48.204;16.202;2024-03-25T01:38:41;2.17;;;0.80;;
62990;SDS011;49084;48.204;16.202;2024-03-25T01:41:10;1.52;;;0.63;;
62990;SDS011;49084;48.204;16.202;2024-03-25T01:43:37;2.63;;;0.68;;
62990;SDS011;49084;48.204;16.202;2024-03-25T01:46:03;1.77;;;0.80;;
62990;SDS011;49084;48.204;16.202;2024-03-25T01:48:30;0.55;;;0.50;;
62990;SDS011;49084;48.204;16.202;2024-03-25T01:50:56;0.55;;;0.55;;
62990;SDS011;49084;48.204;16.202;2024-03-25T01:53:23;0.40;;;0.30;;
62990;SDS011;49084;48.204;16.202;2024-03-25T01:55:50;1.38;;;0.40;;
62990;SDS011;49084;48.204;16.202;2024-03-25T01:58:20;1.40;;;0.40;;
62990;SDS011;49084;48.204;16.202;2024-03-25T02:00:47;1.38;;;0.45;;
62990;SDS011;49084;48.204;16.202;2024-03-25T02:03:14;0.75;;;0.40;;
62990;SDS011;49084;48.204;16.202;2024-03-25T02:05:40;0.40;;;0.38;;
62990;SDS011;49084;48.204;16.202;2024-03-25T02:08:06;2.83;;;0.40;;
62990;SDS011;49084;48.204;16.202;2024-03-25T02:10:32;1.00;;;0.47;;
62990;SDS011;49084;48.204;16.202;2024-03-25T02:12:58;2.03;;;0.77;;
62990;SDS011;49084;48.204;16.202;2024-03-25T02:15:24;0.60;;;0.60;;
62990;SDS011;49084;48.204;16.202;2024-03-25T02:17:51;2.17;;;0.85;;
62990;SDS011;49084;48.204;16.202;2024-03-25T02:20:17;3.58;;;0.90;;
62990;SDS011;49084;48.204;16.202;2024-03-25T02:22:43;1.20;;;0.90;;
62990;SDS011;49084;48.204;16.202;2024-03-25T02:25:09;1.58;;;1.00;;
62990;SDS011;49084;48.204;16.202;2024-03-25T02:27:36;2.83;;;1.23;;
62990;SDS011;49084;48.204;16.202;2024-03-25T02:30:11;0.88;;;0.80;;
62990;SDS011;49084;48.204;16.202;2024-03-25T02:32:39;1.50;;;0.98;;
62990;SDS011;49084;48.204;16.202;2024-03-25T02:35:06;1.73;;;1.13;;
62990;SDS011;49084;48.204;16.202;2024-03-25T02:37:35;1.42;;;0.95;;
62990;SDS011;49084;48.204;16.202;2024-03-25T02:40:01;3.00;;;1.13;;
62990;SDS011;49084;48.204;16.202;2024-03-25T02:42:30;3.17;;;1.20;;
62990;SDS011;49084;48.204;16.202;2024-03-25T02:44:57;0.98;;;0.98;;
62990;SDS011;49084;48.204;16.202;2024-03-25T02:47:24;2.15;;;1.10;;
62990;SDS011;49084;48.204;16.202;2024-03-25T02:49:50;6.13;;;1.10;;
62990;SDS011;49084;48.204;16.202;2024-03-25T02:52:16;3.47;;;1.20;;
62990;SDS011;49084;48.204;16.202;2024-03-25T02:54:42;2.45;;;2.25;;
62990;SDS011;49084;48.204;16.202;2024-03-25T02:57:08;3.53;;;1.73;;
62990;SDS011;49084;48.204;16.202;2024-03-25T02:59:33;2.15;;;1.30;;
62990;SDS011;49084;48.204;16.202;2024-03-25T03:01:59;1.40;;;1.30;;
62990;SDS011;49084;48.204;16.202;2024-03-25T03:04:24;2.55;;;1.35;;
62990;SDS011;49084;48.204;16.202;2024-03-25T03:06:50;1.10;;;0.93;;
62990;SDS011;49084;48.204;16.202;2024-03-25T03:09:16;5.78;;;2.00;;
62990;SDS011;49084;48.204;16.202;2024-03-25T03:11:41;3.15;;;1.10;;
62990;SDS011;49084;48.204;16.202;2024-03-25T03:14:07;2.85;;;1.23;;
62990;SDS011;49084;48.204;16.202;2024-03-25T03:16:32;1.35;;;1.00;;
62990;SDS011;49084;48.204;16.202;2024-03-25T03:18:58;1.27;;;1.10;;
62990;SDS011;49084;48.204;16.202;2024-03-25T03:21:24;2.33;;;1.23;;
62990;SDS011;49084;48.204;16.202;2024-03-25T03:23:49;5.15;;;1.63;;
62990;SDS011;49084;48.204;16.202;2024-03-25T03:26:15;1.55;;;1.42;;
62990;SDS011;49084;48.204;16.202;2024-03-25T03:28:40;1.40;;;1.10;;
62990;SDS011;49084;48.204;16.202;2024-03-25T03:31:06;2.72;;;1.27;;
62990;SDS011;49084;48.204;16.202;2024-03-25T03:33:32;2.13;;;1.20;;
62990;SDS011;49084;48.204;16.202;2024-03-25T03:35:57;1.45;;;1.15;;
62990;SDS011;49084;48.204;16.202;2024-03-25T03:38:23;1.50;;;1.10;;
62990;SDS011;49084;48.204;16.202;2024-03-25T03:40:58;2.20;;;1.20;;
62990;SDS011;49084;48.204;16.202;2024-03-25T03:43:25;0.75;;;0.75;;
62990;SDS011;49084;48.204;16.202;2024-03-25T03:45:51;3.40;;;1.33;;
62990;SDS011;49084;48.204;16.202;2024-03-25T03:48:17;3.00;;;1.20;;
62990;SDS011;49084;48.204;16.202;2024-03-25T03:50:42;1.20;;;0.98;;
62990;SDS011;49084;48.204;16.202;2024-03-25T03:53:08;2.45;;;1.60;;
62990;SDS011;49084;48.204;16.202;2024-03-25T03:55:34;1.35;;;1.20;;
62990;SDS011;49084;48.204;16.202;2024-03-25T03:58:00;2.65;;;1.23;;
62990;SDS011;49084;48.204;16.202;2024-03-25T04:00:26;3.20;;;1.50;;
62990;SDS011;49084;48.204;16.202;2024-03-25T04:02:52;1.08;;;1.08;;
62990;SDS011;49084;48.204;16.202;2024-03-25T04:05:18;2.63;;;1.20;;
62990;SDS011;49084;48.204;16.202;2024-03-25T04:07:44;2.33;;;1.30;;
62990;SDS011;49084;48.204;16.202;2024-03-25T04:10:10;2.72;;;1.42;;
62990;SDS011;49084;48.204;16.202;2024-03-25T04:12:35;1.20;;;1.10;;
62990;SDS011;49084;48.204;16.202;2024-03-25T04:15:04;5.00;;;1.38;;
62990;SDS011;49084;48.204;16.202;2024-03-25T04:17:30;3.22;;;1.38;;
62990;SDS011;49084;48.204;16.202;2024-03-25T04:19:58;5.38;;;1.67;;
62990;SDS011;49084;48.204;16.202;2024-03-25T04:22:31;2.13;;;1.30;;
62990;SDS011;49084;48.204;16.202;2024-03-25T04:24:56;2.53;;;1.60;;
62990;SDS011;49084;48.204;16.202;2024-03-25T04:27:22;2.35;;;1.40;;
62990;SDS011;49084;48.204;16.202;2024-03-25T04:29:50;3.58;;;1.30;;
62990;SDS011;49084;48.204;16.202;2024-03-25T04:32:16;1.75;;;1.00;;
62990;SDS011;49084;48.204;16.202;2024-03-25T04:34:41;2.13;;;1.50;;
62990;SDS011;49084;48.204;16.202;2024-03-25T04:37:07;2.90;;;1.63;;
62990;SDS011;49084;48.204;16.202;2024-03-25T04:39:34;1.70;;;1.35;;
62990;SDS011;49084;48.204;16.202;2024-03-25T04:42:00;3.53;;;1.70;;
62990;SDS011;49084;48.204;16.202;2024-03-25T04:44:27;1.10;;;1.00;;
62990;SDS011;49084;48.204;16.202;2024-03-25T04:46:52;2.05;;;1.27;;
62990;SDS011;49084;48.204;16.202;2024-03-25T04:49:18;1.83;;;1.27;;
62990;SDS011;49084;48.204;16.202;2024-03-25T04:51:44;2.58;;;1.40;;
62990;SDS011;49084;48.204;16.202;2024-03-25T04:54:09;2.88;;;1.38;;
62990;SDS011;49084;48.204;16.202;2024-03-25T04:56:35;4.72;;;1.45;;
62990;SDS011;49084;48.204;16.202;2024-03-25T04:59:00;2.42;;;1.30;;
62990;SDS011;49084;48.204;16.202;2024-03-25T05:01:30;6.82;;;1.40;;
62990;SDS011;49084;48.204;16.202;2024-03-25T05:03:55;4.35;;;1.38;;
62990;SDS011;49084;48.204;16.202;2024-03-25T05:06:21;3.80;;;1.30;;
62990;SDS011;49084;48.204;16.202;2024-03-25T05:08:46;2.88;;;1.50;;
62990;SDS011;49084;48.204;16.202;2024-03-25T05:11:12;2.65;;;1.58;;
62990;SDS011;49084;48.204;16.202;2024-03-25T05:13:38;3.38;;;1.40;;
62990;SDS011;49084;48.204;16.202;2024-03-25T05:16:04;2.20;;;1.42;;
62990;SDS011;49084;48.204;16.202;2024-03-25T05:18:29;6.32;;;1.52;;
62990;SDS011;49084;48.204;16.202;2024-03-25T05:20:55;2.20;;;1.20;;
62990;SDS011;49084;48.204;16.202;2024-03-25T05:23:21;5.72;;;1.80;;
62990;SDS011;49084;48.204;16.202;2024-03-25T05:25:46;5.00;;;2.08;;
62990;SDS011;49084;48.204;16.202;2024-03-25T05:28:12;1.95;;;1.25;;
62990;SDS011;49084;48.204;16.202;2024-03-25T05:30:38;3.20;;;1.50;;
62990;SDS011;49084;48.204;16.202;2024-03-25T05:33:04;1.17;;;1.00;;
62990;SDS011;49084;48.204;16.202;2024-03-25T05:35:29;2.50;;;1.40;;
62990;SDS011;49084;48.204;16.202;2024-03-25T05:37:58;4.50;;;1.33;;
62990;SDS011;49084;48.204;16.202;2024-03-25T05:40:23;2.00;;;1.40;;
62990;SDS011;49084;48.204;16.202;2024-03-25T05:42:49;6.45;;;1.70;;
62990;SDS011;49084;48.204;16.202;2024-03-25T05:45:15;5.68;;;1.45;;
62990;SDS011;49084;48.204;16.202;2024-03-25T05:47:40;2.75;;;1.40;;
62990;SDS011;49084;48.204;16.202;2024-03-25T05:50:06;2.05;;;1.55;;
62990;SDS011;49084;48.204;16.202;2024-03-25T05:52:33;3.65;;;1.13;;
62990;SDS011;49084;48.204;16.202;2024-03-25T05:54:58;3.22;;;1.77;;
62990;SDS011;49084;48.204;16.202;2024-03-25T05:57:24;2.60;;;1.33;;
62990;SDS011;49084;48.204;16.202;2024-03-25T05:59:50;2.17;;;1.13;;
62990;SDS011;49084;48.204;16.202;2024-03-25T06:02:15;3.28;;;1.30;;
62990;SDS011;49084;48.204;16.202;2024-03-25T06:04:41;1.80;;;1.20;;
62990;SDS011;49084;48.204;16.202;2024-03-25T06:07:06;2.83;;;1.60;;
62990;SDS011;49084;48.204;16.202;2024-03-25T06:09:32;4.72;;;1.60;;
62990;SDS011;49084;48.204;16.202;2024-03-25T06:11:58;4.63;;;1.33;;
62990;SDS011;49084;48.204;16.202;2024-03-25T06:14:23;3.03;;;1.52;;
62990;SDS011;49084;48.204;16.202;2024-03-25T06:16:49;3.25;;;1.60;;
62990;SDS011;49084;48.204;16.202;2024-03-25T06:19:15;3.28;;;1.50;;
62990;SDS011;49084;48.204;16.202;2024-03-25T06:21:40;3.33;;;1.70;;
62990;SDS011;49084;48.204;16.202;2024-03-25T06:24:07;2.17;;;1.80;;
62990;SDS011;49084;48.204;16.202;2024-03-25T06:26:33;1.50;;;1.40;;
62990;SDS011;49084;48.204;16.202;2024-03-25T06:28:59;2.08;;;1.83;;
62990;SDS011;49084;48.204;16.202;2024-03-25T06:31:25;2.35;;;1.52;;
62990;SDS011;49084;48.204;16.202;2024-03-25T06:34:10;2.60;;;1.95;;
62990;SDS011;49084;48.204;16.202;2024-03-25T06:36:46;1.60;;;1.50;;
62990;SDS011;49084;48.204;16.202;2024-03-25T06:39:13;3.22;;;1.65;;
62990;SDS011;49084;48.204;16.202;2024-03-25T06:41:39;3.80;;;1.63;;
62990;SDS011;49084;48.204;16.202;2024-03-25T06:44:05;3.67;;;1.90;;
62990;SDS011;49084;48.204;16.202;2024-03-25T06:46:31;3.78;;;2.00;;
62990;SDS011;49084;48.204;16.202;2024-03-25T06:48:57;8.75;;;1.50;;
62990;SDS011;49084;48.204;16.202;2024-03-25T06:51:22;2.08;;;1.50;;
62990;SDS011;49084;48.204;16.202;2024-03-25T06:53:48;3.28;;;1.85;;
62990;SDS011;49084;48.204;16.202;2024-03-25T06:56:14;4.85;;;1.73;;
62990;SDS011;49084;48.204;16.202;2024-03-25T06:58:39;4.90;;;1.75;;
62990;SDS011;49084;48.204;16.202;2024-03-25T07:01:06;2.40;;;1.60;;
62990;SDS011;49084;48.204;16.202;2024-03-25T07:03:32;3.00;;;1.23;;
62990;SDS011;49084;48.204;16.202;2024-03-25T07:05:58;3.38;;;1.52;;
62990;SDS011;49084;48.204;16.202;2024-03-25T07:08:25;2.75;;;1.50;;
62990;SDS011;49084;48.204;16.202;2024-03-25T07:10:52;4.85;;;1.90;;
62990;SDS011;49084;48.204;16.202;2024-03-25T07:13:18;1.50;;;1.38;;
62990;SDS011;49084;48.204;16.202;2024-03-25T07:15:44;2.38;;;1.40;;
62990;SDS011;49084;48.204;16.202;2024-03-25T07:18:09;2.38;;;1.40;;
62990;SDS011;49084;48.204;16.202;2024-03-25T07:20:42;1.73;;;1.17;;
62990;SDS011;49084;48.204;16.202;2024-03-25T07:23:08;3.42;;;1.25;;
62990;SDS011;49084;48.204;16.202;2024-03-25T07:25:34;1.30;;;1.15;;
62990;SDS011;49084;48.204;16.202;2024-03-25T07:28:00;1.75;;;1.42;;
62990;SDS011;49084;48.204;16.202;2024-03-25T07:30:27;3.95;;;1.45;;
62990;SDS011;49084;48.204;16.202;2024-03-25T07:32:54;2.65;;;1.40;;
62990;SDS011;49084;48.204;16.202;2024-03-25T07:35:23;1.92;;;1.30;;
62990;SDS011;49084;48.204;16.202;2024-03-25T07:37:49;3.63;;;1.25;;
62990;SDS011;49084;48.204;16.202;2024-03-25T07:40:18;2.45;;;1.27;;
62990;SDS011;49084;48.204;16.202;2024-03-25T07:42:44;2.58;;;1.20;;
62990;SDS011;49084;48.204;16.202;2024-03-25T07:45:10;4.80;;;1.13;;
62990;SDS011;49084;48.204;16.202;2024-03-25T07:47:35;1.15;;;0.90;;
62990;SDS011;49084;48.204;16.202;2024-03-25T07:50:01;2.60;;;1.02;;
62990;SDS011;49084;48.204;16.202;2024-03-25T07:52:27;1.98;;;1.05;;
62990;SDS011;49084;48.204;16.202;2024-03-25T07:54:53;1.85;;;0.93;;
62990;SDS011;49084;48.204;16.202;2024-03-25T07:57:20;3.83;;;1.00;;
62990;SDS011;49084;48.204;16.202;2024-03-25T07:59:46;2.85;;;0.95;;
62990;SDS011;49084;48.204;16.202;2024-03-25T08:02:11;1.48;;;0.95;;
62990;SDS011;49084;48.204;16.202;2024-03-25T08:04:37;4.10;;;1.00;;
62990;SDS011;49084;48.204;16.202;2024-03-25T08:07:02;6.20;;;0.90;;
62990;SDS011;49084;48.204;16.202;2024-03-25T08:09:28;2.13;;;1.20;;
62990;SDS011;49084;48.204;16.202;2024-03-25T08:11:54;4.00;;;0.90;;
62990;SDS011;49084;48.204;16.202;2024-03-25T08:14:20;1.42;;;0.90;;
62990;SDS011;49084;48.204;16.202;2024-03-25T08:16:46;2.17;;;1.10;;
62990;SDS011;49084;48.204;16.202;2024-03-25T08:19:11;1.20;;;1.00;;
62990;SDS011;49084;48.204;16.202;2024-03-25T08:21:37;1.08;;;0.75;;
62990;SDS011;49084;48.204;16.202;2024-03-25T08:24:03;2.95;;;1.67;;
62990;SDS011;49084;48.204;16.202;2024-03-25T08:26:28;3.42;;;1.08;;
62990;SDS011;49084;48.204;16.202;2024-03-25T08:28:54;1.63;;;1.20;;
62990;SDS011;49084;48.204;16.202;2024-03-25T08:31:20;3.22;;;1.27;;
62990;SDS011;49084;48.204;16.202;2024-03-25T08:33:46;3.20;;;0.80;;
62990;SDS011;49084;48.204;16.202;2024-03-25T08:36:11;3.20;;;1.10;;
62990;SDS011;49084;48.204;16.202;2024-03-25T08:38:37;1.90;;;0.93;;
62990;SDS011;49084;48.204;16.202;2024-03-25T08:41:03;1.35;;;0.90;;
62990;SDS011;49084;48.204;16.202;2024-03-25T08:43:29;0.75;;;0.60;;
62990;SDS011;49084;48.204;16.202;2024-03-25T08:45:54;3.15;;;1.00;;
62990;SDS011;49084;48.204;16.202;2024-03-25T08:48:20;2.92;;;1.25;;
62990;SDS011;49084;48.204;16.202;2024-03-25T08:50:46;3.33;;;0.90;;
62990;SDS011;49084;48.204;16.202;2024-03-25T08:53:12;1.77;;;0.80;;
62990;SDS011;49084;48.204;16.202;2024-03-25T08:55:37;6.90;;;1.10;;
62990;SDS011;49084;48.204;16.202;2024-03-25T08:58:03;2.25;;;0.95;;
62990;SDS011;49084;48.204;16.202;2024-03-25T09:00:29;3.72;;;0.90;;
62990;SDS011;49084;48.204;16.202;2024-03-25T09:02:54;4.03;;;0.73;;
62990;SDS011;49084;48.204;16.202;2024-03-25T09:05:20;1.00;;;0.63;;
62990;SDS011;49084;48.204;16.202;2024-03-25T09:07:50;2.25;;;0.57;;
62990;SDS011;49084;48.204;16.202;2024-03-25T09:10:17;2.03;;;0.70;;
62990;SDS011;49084;48.204;16.202;2024-03-25T09:13:02;0.95;;;0.77;;
62990;SDS011;49084;48.204;16.202;2024-03-25T09:15:28;2.33;;;0.80;;
62990;SDS011;49084;48.204;16.202;2024-03-25T09:17:54;1.83;;;0.70;;
62990;SDS011;49084;48.204;16.202;2024-03-25T09:20:20;2.28;;;0.93;;
62990;SDS011;49084;48.204;16.202;2024-03-25T09:22:49;0.63;;;0.63;;
62990;SDS011;49084;48.204;16.202;2024-03-25T09:25:15;0.88;;;0.68;;
62990;SDS011;49084;48.204;16.202;2024-03-25T09:27:48;1.95;;;0.73;;
62990;SDS011;49084;48.204;16.202;2024-03-25T09:30:14;4.50;;;1.00;;
62990;SDS011;49084;48.204;16.202;2024-03-25T09:32:40;1.63;;;0.93;;
62990;SDS011;49084;48.204;16.202;2024-03-25T09:35:07;3.30;;;1.42;;
62990;SDS011;49084;48.204;16.202;2024-03-25T09:37:36;2.30;;;0.80;;
62990;SDS011;49084;48.204;16.202;2024-03-25T09:40:03;0.93;;;0.85;;
62990;SDS011;49084;48.204;16.202;2024-03-25T09:42:42;1.05;;;0.80;;
62990;SDS011;49084;48.204;16.202;2024-03-25T09:45:17;2.70;;;1.23;;
62990;SDS011;49084;48.204;16.202;2024-03-25T09:47:47;1.55;;;1.00;;
62990;SDS011;49084;48.204;16.202;2024-03-25T09:50:13;2.58;;;0.70;;
62990;SDS011;49084;48.204;16.202;2024-03-25T09:52:48;1.08;;;0.60;;
62990;SDS011;49084;48.204;16.202;2024-03-25T09:55:14;2.72;;;1.02;;
62990;SDS011;49084;48.204;16.202;2024-03-25T09:57:40;2.17;;;0.98;;
62990;SDS011;49084;48.204;16.202;2024-03-25T10:00:07;1.27;;;0.70;;
62990;SDS011;49084;48.204;16.202;2024-03-25T10:02:34;1.73;;;0.98;;
62990;SDS011;49084;48.204;16.202;2024-03-25T10:07:29;1.95;;;1.27;;
62990;SDS011;49084;48.204;16.202;2024-03-25T10:09:55;1.15;;;0.50;;
62990;SDS011;49084;48.204;16.202;2024-03-25T10:12:21;1.55;;;0.68;;
62990;SDS011;49084;48.204;16.202;2024-03-25T10:14:47;1.25;;;0.52;;
62990;SDS011;49084;48.204;16.202;2024-03-25T10:17:13;1.77;;;0.60;;
62990;SDS011;49084;48.204;16.202;2024-03-25T10:19:38;1.95;;;0.80;;
62990;SDS011;49084;48.204;16.202;2024-03-25T10:22:04;0.68;;;0.40;;
62990;SDS011;49084;48.204;16.202;2024-03-25T10:27:02;3.25;;;0.70;;
62990;SDS011;49084;48.204;16.202;2024-03-25T10:29:29;1.35;;;0.60;;
62990;SDS011;49084;48.204;16.202;2024-03-25T10:32:01;2.60;;;2.40;;
62990;SDS011;49084;48.204;16.202;2024-03-25T10:34:29;2.53;;;0.73;;
62990;SDS011;49084;48.204;16.202;2024-03-25T10:36:56;4.35;;;0.80;;
62990;SDS011;49084;48.204;16.202;2024-03-25T10:39:26;1.58;;;0.73;;
62990;SDS011;49084;48.204;16.202;2024-03-25T10:41:58;1.10;;;0.85;;
62990;SDS011;49084;48.204;16.202;2024-03-25T10:44:28;0.93;;;0.68;;
62990;SDS011;49084;48.204;16.202;2024-03-25T10:46:59;2.80;;;0.70;;
62990;SDS011;49084;48.204;16.202;2024-03-25T10:52:00;1.58;;;0.57;;
62990;SDS011;49084;48.204;16.202;2024-03-25T10:54:28;0.63;;;0.60;;
62990;SDS011;49084;48.204;16.202;2024-03-25T10:56:56;0.82;;;0.80;;
62990;SDS011;49084;48.204;16.202;2024-03-25T10:59:23;0.70;;;0.63;;
62990;SDS011;49084;48.204;16.202;2024-03-25T11:01:51;1.85;;;0.90;;
62990;SDS011;49084;48.204;16.202;2024-03-25T11:04:17;1.40;;;0.88;;
62990;SDS011;49084;48.204;16.202;2024-03-25T11:06:44;0.80;;;0.57;;
62990;SDS011;49084;48.204;16.202;2024-03-25T11:09:10;2.88;;;0.60;;
62990;SDS011;49084;48.204;16.202;2024-03-25T11:11:50;2.47;;;0.93;;
62990;SDS011;49084;48.204;16.202;2024-03-25T11:14:17;2.30;;;0.60;;
62990;SDS011;49084;48.204;16.202;2024-03-25T11:16:43;1.45;;;0.63;;
62990;SDS011;49084;48.204;16.202;2024-03-25T11:19:10;1.48;;;0.63;;
62990;SDS011;49084;48.204;16.202;2024-03-25T11:21:36;2.28;;;0.75;;
62990;SDS011;49084;48.204;16.202;2024-03-25T11:24:08;0.95;;;0.75;;
62990;SDS011;49084;48.204;16.202;2024-03-25T11:26:34;1.73;;;0.80;;
62990;SDS011;49084;48.204;16.202;2024-03-25T11:29:02;1.85;;;0.50;;
62990;SDS011;49084;48.204;16.202;2024-03-25T11:31:28;1.20;;;0.80;;
62990;SDS011;49084;48.204;16.202;2024-03-25T11:36:28;0.70;;;0.45;;
62990;SDS011;49084;48.204;16.202;2024-03-25T11:39:13;2.38;;;0.80;;
62990;SDS011;49084;48.204;16.202;2024-03-25T11:41:40;4.25;;;0.85;;
62990;SDS011;49084;48.204;16.202;2024-03-25T11:44:07;2.35;;;0.80;;
62990;SDS011;49084;48.204;16.202;2024-03-25T11:46:34;1.23;;;0.60;;
62990;SDS011;49084;48.204;16.202;2024-03-25T11:49:02;1.92;;;0.52;;
62990;SDS011;49084;48.204;16.202;2024-03-25T11:51:31;1.27;;;0.60;;
62990;SDS011;49084;48.204;16.202;2024-03-25T11:53:58;1.15;;;0.70;;
62990;SDS011;49084;48.204;16.202;2024-03-25T11:56:24;3.45;;;0.77;;
62990;SDS011;49084;48.204;16.202;2024-03-25T11:58:51;2.20;;;0.63;;
62990;SDS011;49084;48.204;16.202;2024-03-25T12:01:17;2.30;;;0.50;;
62990;SDS011;49084;48.204;16.202;2024-03-25T12:03:42;1.27;;;0.50;;
62990;SDS011;49084;48.204;16.202;2024-03-25T12:06:08;3.40;;;0.50;;
62990;SDS011;49084;48.204;16.202;2024-03-25T12:08:33;2.50;;;0.63;;
62990;SDS011;49084;48.204;16.202;2024-03-25T12:11:09;4.68;;;0.45;;
62990;SDS011;49084;48.204;16.202;2024-03-25T12:13:44;0.28;;;0.28;;
62990;SDS011;49084;48.204;16.202;2024-03-25T12:16:09;1.92;;;0.43;;
62990;SDS011;49084;48.204;16.202;2024-03-25T12:18:35;2.10;;;0.70;;
62990;SDS011;49084;48.204;16.202;2024-03-25T12:21:04;1.70;;;1.00;;
62990;SDS011;49084;48.204;16.202;2024-03-25T12:23:33;2.40;;;0.60;;
62990;SDS011;49084;48.204;16.202;2024-03-25T12:25:59;1.08;;;0.50;;
62990;SDS011;49084;48.204;16.202;2024-03-25T12:28:25;0.85;;;0.77;;
62990;SDS011;49084;48.204;16.202;2024-03-25T12:30:55;3.03;;;0.73;;
62990;SDS011;49084;48.204;16.202;2024-03-25T12:33:23;2.20;;;0.80;;
62990;SDS011;49084;48.204;16.202;2024-03-25T12:35:50;1.23;;;0.50;;
62990;SDS011;49084;48.204;16.202;2024-03-25T12:38:30;1.85;;;1.00;;
62990;SDS011;49084;48.204;16.202;2024-03-25T12:43:31;1.33;;;0.73;;
62990;SDS011;49084;48.204;16.202;2024-03-25T12:45:57;1.65;;;1.00;;
62990;SDS011;49084;48.204;16.202;2024-03-25T12:48:24;3.10;;;1.00;;
62990;SDS011;49084;48.204;16.202;2024-03-25T12:50:50;2.42;;;0.85;;
62990;SDS011;49084;48.204;16.202;2024-03-25T12:53:17;1.55;;;0.80;;
62990;SDS011;49084;48.204;16.202;2024-03-25T12:55:43;1.05;;;0.68;;
62990;SDS011;49084;48.204;16.202;2024-03-25T12:58:09;1.60;;;0.88;;
62990;SDS011;49084;48.204;16.202;2024-03-25T13:00:35;1.50;;;0.95;;
62990;SDS011;49084;48.204;16.202;2024-03-25T13:03:01;1.17;;;0.50;;
62990;SDS011;49084;48.204;16.202;2024-03-25T13:05:27;0.73;;;0.73;;
62990;SDS011;49084;48.204;16.202;2024-03-25T13:07:53;1.30;;;1.05;;
62990;SDS011;49084;48.204;16.202;2024-03-25T13:10:19;1.55;;;0.93;;
62990;SDS011;49084;48.204;16.202;2024-03-25T13:12:45;2.55;;;0.90;;
62990;SDS011;49084;48.204;16.202;2024-03-25T13:15:11;1.77;;;0.65;;
62990;SDS011;49084;48.204;16.202;2024-03-25T13:17:36;1.10;;;0.70;;
62990;SDS011;49084;48.204;16.202;2024-03-25T13:20:02;1.58;;;0.80;;
62990;SDS011;49084;48.204;16.202;2024-03-25T13:22:29;1.05;;;0.65;;
62990;SDS011;49084;48.204;16.202;2024-03-25T13:24:57;1.98;;;0.80;;
62990;SDS011;49084;48.204;16.202;2024-03-25T13:27:23;3.47;;;1.17;;
62990;SDS011;49084;48.204;16.202;2024-03-25T13:29:50;2.25;;;1.30;;
62990;SDS011;49084;48.204;16.202;2024-03-25T13:32:17;2.33;;;1.20;;
62990;SDS011;49084;48.204;16.202;2024-03-25T13:34:43;2.65;;;1.10;;
62990;SDS011;49084;48.204;16.202;2024-03-25T13:37:09;1.27;;;0.98;;
62990;SDS011;49084;48.204;16.202;2024-03-25T13:39:35;2.42;;;0.85;;
62990;SDS011;49084;48.204;16.202;2024-03-25T13:42:01;7.07;;;0.93;;
62990;SDS011;49084;48.204;16.202;2024-03-25T13:44:27;2.25;;;0.88;;
62990;SDS011;49084;48.204;16.202;2024-03-25T13:46:53;1.30;;;0.50;;
62990;SDS011;49084;48.204;16.202;2024-03-25T13:49:19;2.00;;;0.80;;
62990;SDS011;49084;48.204;16.202;2024-03-25T13:51:45;1.48;;;0.88;;
62990;SDS011;49084;48.204;16.202;2024-03-25T13:54:11;0.60;;;0.60;;
62990;SDS011;49084;48.204;16.202;2024-03-25T13:56:37;3.50;;;1.20;;
62990;SDS011;49084;48.204;16.202;2024-03-25T13:59:03;1.98;;;1.02;;
62990;SDS011;49084;48.204;16.202;2024-03-25T14:01:28;2.03;;;0.98;;
62990;SDS011;49084;48.204;16.202;2024-03-25T14:03:54;1.88;;;0.70;;
62990;SDS011;49084;48.204;16.202;2024-03-25T14:06:20;1.55;;;0.70;;
62990;SDS011;49084;48.204;16.202;2024-03-25T14:08:45;1.35;;;0.90;;
62990;SDS011;49084;48.204;16.202;2024-03-25T14:11:11;2.20;;;0.75;;
62990;SDS011;49084;48.204;16.202;2024-03-25T14:13:37;1.92;;;0.85;;
62990;SDS011;49084;48.204;16.202;2024-03-25T14:16:03;1.70;;;0.90;;
62990;SDS011;49084;48.204;16.202;2024-03-25T14:18:29;0.93;;;0.88;;
62990;SDS011;49084;48.204;16.202;2024-03-25T14:20:55;1.35;;;1.10;;
62990;SDS011;49084;48.204;16.202;2024-03-25T14:23:22;1.20;;;1.05;;
62990;SDS011;49084;48.204;16.202;2024-03-25T14:25:47;2.25;;;1.05;;
62990;SDS011;49084;48.204;16.202;2024-03-25T14:28:13;2.08;;;0.90;;
62990;SDS011;49084;48.204;16.202;2024-03-25T14:30:39;1.55;;;1.25;;
62990;SDS011;49084;48.204;16.202;2024-03-25T14:33:04;2.28;;;0.80;;
62990;SDS011;49084;48.204;16.202;2024-03-25T14:35:30;2.03;;;0.68;;
62990;SDS011;49084;48.204;16.202;2024-03-25T14:37:55;3.13;;;1.10;;
62990;SDS011;49084;48.204;16.202;2024-03-25T14:40:21;1.33;;;1.00;;
62990;SDS011;49084;48.204;16.202;2024-03-25T14:42:47;3.10;;;0.77;;